Time;durP1;ratioP1;P1;durP2;ratioP2;P2;SDS_P1;SDS_P2;PMS_P1;PMS_P2;Temp;Humidity;BMP_temperature;BMP_pressure;BME280_temperature;BME280_humidity;BME280_pressure;Samples;Min_cycle;Max_cycle;Signal;HPM_P1;HPM_P2
2021/08/27 00:01:39;;;;;;;0.10;0.10;;;13.60;82.20;;;;;;4992794;28;20034;-79
2021/08/27 00:04:05;;;;;;;0.15;0.15;;;13.60;82.20;;;;;;4990374;28;20586;-79
2021/08/27 00:06:30;;;;;;;0.43;0.20;;;13.50;82.20;;;;;;4992165;28;20034;-80
2021/08/27 00:08:58;;;;;;;0.70;0.20;;;13.50;82.20;;;;;;4989501;28;20046;-78
2021/08/27 00:11:24;;;;;;;0.10;0.10;;;13.50;82.30;;;;;;4990646;28;20030;-79
2021/08/27 00:13:50;;;;;;;0.13;0.13;;;13.50;82.30;;;;;;4989914;28;20133;-79
2021/08/27 00:16:15;;;;;;;0.65;0.20;;;13.50;82.40;;;;;;4989769;28;20070;-79
2021/08/27 00:18:41;;;;;;;0.10;0.10;;;13.50;82.40;;;;;;4989088;28;20062;-79
2021/08/27 00:21:07;;;;;;;0.25;0.10;;;13.50;82.40;;;;;;4991102;28;20531;-79
2021/08/27 00:23:33;;;;;;;0.68;0.20;;;13.50;82.40;;;;;;4989447;28;20475;-79
2021/08/27 00:25:59;;;;;;;0.43;0.22;;;13.50;82.40;;;;;;4989080;28;20043;-79
2021/08/27 00:28:25;;;;;;;0.10;0.10;;;13.50;82.50;;;;;;4989535;28;20489;-79
2021/08/27 00:30:51;;;;;;;0.10;0.10;;;13.50;82.50;;;;;;4989011;28;20031;-79
2021/08/27 00:33:16;;;;;;;0.68;0.20;;;13.50;82.50;;;;;;4992897;28;20039;-79
2021/08/27 00:35:42;;;;;;;0.35;0.20;;;13.50;82.50;;;;;;4995170;28;20074;-79
2021/08/27 00:38:14;;;;;;;0.10;0.10;;;13.50;82.60;;;;;;4992782;28;20046;-79
2021/08/27 00:40:41;;;;;;;0.40;0.20;;;13.60;82.70;;;;;;4992883;28;20037;-79
2021/08/27 00:43:06;;;;;;;0.40;0.30;;;13.40;82.60;;;;;;4992473;28;20112;-79
2021/08/27 00:45:32;;;;;;;0.50;0.20;;;13.40;82.70;;;;;;4993859;28;20502;-78
2021/08/27 00:48:00;;;;;;;1.10;0.30;;;13.40;82.80;;;;;;4992856;28;20034;-79
2021/08/27 00:50:26;;;;;;;0.20;0.17;;;13.40;82.90;;;;;;4992884;28;20461;-79
2021/08/27 00:52:52;;;;;;;0.85;0.17;;;13.40;82.90;;;;;;4992191;28;20125;-80
2021/08/27 00:55:17;;;;;;;0.47;0.13;;;13.40;82.90;;;;;;4993370;28;20038;-79
2021/08/27 00:57:43;;;;;;;0.30;0.15;;;13.40;82.90;;;;;;5008998;28;20125;-79
2021/08/27 01:00:10;;;;;;;0.17;0.17;;;13.40;82.90;;;;;;4994884;28;20084;-79
2021/08/27 01:02:36;;;;;;;0.75;0.10;;;13.30;83.00;;;;;;4993580;28;20037;-79
2021/08/27 01:05:05;;;;;;;0.38;0.20;;;13.30;83.10;;;;;;4992954;28;20056;-79
2021/08/27 01:07:36;;;;;;;0.63;0.13;;;13.30;83.70;;;;;;5009034;28;20043;-79
2021/08/27 01:10:25;;;;;;;0.75;0.13;;;13.30;83.20;;;;;;4993088;28;20030;-79
2021/08/27 01:13:05;;;;;;;0.52;0.13;;;13.30;83.30;;;;;;4996108;28;20039;-79
2021/08/27 01:15:57;;;;;;;1.17;0.20;;;13.30;83.30;;;;;;4992440;28;20042;-80
2021/08/27 01:18:34;;;;;;;0.10;0.10;;;13.20;83.30;;;;;;4991709;28;20042;-79
2021/08/27 01:21:36;;;;;;;0.13;0.13;;;13.20;83.40;;;;;;4992169;28;20042;-79
2021/08/27 01:24:06;;;;;;;0.85;0.20;;;13.20;83.50;;;;;;4991014;28;20509;-79
2021/08/27 01:26:41;;;;;;;0.20;0.10;;;13.10;83.40;;;;;;4992366;28;20038;-79
2021/08/27 01:29:08;;;;;;;0.40;0.10;;;13.10;83.50;;;;;;4993384;28;20065;-79
2021/08/27 01:31:55;;;;;;;0.50;0.20;;;13.10;83.50;;;;;;4992757;28;20034;-79
2021/08/27 01:34:37;;;;;;;0.10;0.10;;;13.10;83.60;;;;;;4993101;28;20125;-79
2021/08/27 01:37:06;;;;;;;1.13;0.10;;;13.10;83.70;;;;;;4994229;28;20070;-79
2021/08/27 01:39:37;;;;;;;0.43;0.20;;;13.10;83.60;;;;;;4994072;28;20489;-79
2021/08/27 01:42:05;;;;;;;0.77;0.20;;;13.00;83.60;;;;;;4992058;28;20038;-79
2021/08/27 01:44:31;;;;;;;0.55;0.13;;;13.10;83.60;;;;;;4990611;28;20066;-78
2021/08/27 01:46:59;;;;;;;0.20;0.20;;;13.10;83.70;;;;;;4990988;28;20026;-78
2021/08/27 01:49:30;;;;;;;0.10;0.10;;;13.00;83.70;;;;;;4992712;28;20034;-79
2021/08/27 01:51:59;;;;;;;0.95;0.17;;;13.10;83.80;;;;;;4993005;28;20125;-79
2021/08/27 01:54:27;;;;;;;0.30;0.13;;;13.00;83.70;;;;;;4992870;28;20054;-79
2021/08/27 01:56:53;;;;;;;0.20;0.20;;;12.90;83.70;;;;;;4992119;28;20390;-79
2021/08/27 01:59:21;;;;;;;1.15;0.20;;;12.90;83.70;;;;;;4994018;28;20082;-79
2021/08/27 02:01:47;;;;;;;0.17;0.17;;;13.00;83.70;;;;;;4991602;28;20047;-79
2021/08/27 02:04:15;;;;;;;1.02;0.30;;;13.00;83.80;;;;;;4991663;28;20038;-78
2021/08/27 02:06:43;;;;;;;0.25;0.10;;;12.90;83.80;;;;;;5007202;28;20038;-79
2021/08/27 02:09:12;;;;;;;0.10;0.10;;;13.00;83.80;;;;;;4990787;28;20113;-79
2021/08/27 02:11:39;;;;;;;0.38;0.20;;;13.00;83.90;;;;;;4988734;28;20417;-79
2021/08/27 02:14:05;;;;;;;0.55;0.25;;;12.90;83.90;;;;;;4993857;28;20043;-79
2021/08/27 02:16:31;;;;;;;0.98;0.22;;;13.00;83.90;;;;;;4994042;28;20388;-79
2021/08/27 02:18:57;;;;;;;1.42;0.30;;;12.90;83.90;;;;;;4991336;28;20034;-78
2021/08/27 02:21:28;;;;;;;0.80;0.30;;;12.90;83.90;;;;;;4990292;28;20382;-79
2021/08/27 02:23:56;;;;;;;0.10;0.10;;;12.90;83.90;;;;;;4977307;28;20046;-79
2021/08/27 02:26:23;;;;;;;0.68;0.20;;;13.00;84.00;;;;;;5008310;28;20035;-79
2021/08/27 02:28:49;;;;;;;0.30;0.30;;;13.00;83.90;;;;;;4991621;28;20441;-79
2021/08/27 02:31:16;;;;;;;1.45;0.30;;;13.00;83.90;;;;;;4991651;28;20039;-79
2021/08/27 02:33:44;;;;;;;0.15;0.15;;;13.00;83.90;;;;;;4990419;28;20097;-79
2021/08/27 02:36:15;;;;;;;0.35;0.10;;;13.00;84.10;;;;;;4992726;28;20138;-79
2021/08/27 02:38:42;;;;;;;0.20;0.20;;;13.00;83.90;;;;;;4993454;28;20534;-78
2021/08/27 02:41:08;;;;;;;0.22;0.22;;;13.00;83.90;;;;;;4992042;28;20122;-78
2021/08/27 02:43:34;;;;;;;0.65;0.30;;;13.00;83.80;;;;;;4993312;28;20074;-78
2021/08/27 02:46:00;;;;;;;0.95;0.20;;;13.10;83.80;;;;;;5007344;28;20422;-79
2021/08/27 02:48:26;;;;;;;0.57;0.30;;;13.10;83.70;;;;;;4993210;28;20034;-78
2021/08/27 02:51:00;;;;;;;0.57;0.20;;;13.20;83.70;;;;;;4991228;28;20072;-78
2021/08/27 02:53:31;;;;;;;0.88;0.28;;;13.30;83.70;;;;;;4991725;28;20070;-79
2021/08/27 02:56:08;;;;;;;1.45;0.43;;;13.20;83.60;;;;;;4990016;28;20048;-78
2021/08/27 02:58:35;;;;;;;0.73;0.35;;;13.20;83.60;;;;;;5007192;28;20038;-79
2021/08/27 03:01:08;;;;;;;0.30;0.28;;;13.20;83.60;;;;;;4993914;28;20479;-78
2021/08/27 03:03:38;;;;;;;0.10;0.10;;;13.20;83.70;;;;;;4990774;28;20042;-78
2021/08/27 03:06:10;;;;;;;0.47;0.30;;;13.20;83.70;;;;;;4990755;28;20043;-79
2021/08/27 03:08:42;;;;;;;0.10;0.10;;;13.20;83.70;;;;;;5007032;28;20506;-79
2021/08/27 03:11:15;;;;;;;0.30;0.30;;;13.20;83.70;;;;;;4991386;28;20041;-78
2021/08/27 03:13:46;;;;;;;0.20;0.20;;;13.20;83.70;;;;;;5007257;28;20034;-79
2021/08/27 03:16:17;;;;;;;0.30;0.20;;;13.20;83.80;;;;;;4991367;28;20042;-79
2021/08/27 03:18:51;;;;;;;0.25;0.15;;;13.20;83.80;;;;;;5007518;28;20034;-79
2021/08/27 03:21:51;;;;;;;0.20;0.20;;;13.20;83.70;;;;;;4993418;28;20022;-79
2021/08/27 03:24:23;;;;;;;0.38;0.10;;;13.30;83.80;;;;;;4992461;28;20043;-79
2021/08/27 03:26:52;;;;;;;;;;;13.30;83.70;;;;;;4993309;28;20094;-79
2021/08/27 03:29:19;;;;;;;0.38;0.20;;;13.30;83.60;;;;;;4989793;28;19906;-78
2021/08/27 03:31:46;;;;;;;0.32;0.20;;;13.40;83.60;;;;;;4992840;28;20478;-78
2021/08/27 03:34:13;;;;;;;0.90;0.20;;;13.40;83.60;;;;;;4992800;28;20042;-78
2021/08/27 03:36:40;;;;;;;0.43;0.20;;;13.40;83.60;;;;;;4990396;28;20043;-78
2021/08/27 03:39:07;;;;;;;1.40;0.30;;;13.40;83.60;;;;;;4989864;28;20030;-78
2021/08/27 03:41:36;;;;;;;0.47;0.30;;;13.40;83.60;;;;;;4989496;28;20034;-78
2021/08/27 03:44:03;;;;;;;0.25;0.20;;;13.50;83.60;;;;;;4992625;28;20076;-79
2021/08/27 03:46:30;;;;;;;0.20;0.10;;;13.50;83.50;;;;;;5006543;28;20042;-79
2021/08/27 03:48:56;;;;;;;0.20;0.20;;;13.50;83.50;;;;;;4989696;28;20486;-79
2021/08/27 03:51:23;;;;;;;1.75;0.25;;;13.60;83.60;;;;;;4991282;28;20035;-79
2021/08/27 03:53:50;;;;;;;0.28;0.10;;;13.60;83.50;;;;;;4990806;28;20113;-78
2021/08/27 03:56:17;;;;;;;0.47;0.20;;;13.70;84.10;;;;;;4990475;28;20034;-78
2021/08/27 03:58:45;;;;;;;0.22;0.22;;;13.60;83.40;;;;;;4993110;28;20043;-78
2021/08/27 04:01:11;;;;;;;0.10;0.10;;;13.70;83.40;;;;;;4993019;28;20035;-78
2021/08/27 04:03:37;;;;;;;0.55;0.20;;;13.70;83.40;;;;;;4991298;28;20445;-79
2021/08/27 04:06:08;;;;;;;0.10;0.10;;;13.70;83.40;;;;;;5006754;28;20049;-78
2021/08/27 04:08:37;;;;;;;;;;;13.70;83.50;;;;;;4994407;28;20252;-79
2021/08/27 04:11:04;;;;;;;0.20;0.20;;;13.80;83.40;;;;;;4995743;28;19913;-79
2021/08/27 04:13:30;;;;;;;0.20;0.15;;;13.70;83.30;;;;;;4993361;28;20046;-79
2021/08/27 04:15:56;;;;;;;0.22;0.22;;;13.80;83.40;;;;;;4995455;28;20045;-78
2021/08/27 04:18:21;;;;;;;0.22;0.22;;;13.70;83.40;;;;;;4993942;28;20047;-79
2021/08/27 04:20:48;;;;;;;0.20;0.20;;;13.70;83.50;;;;;;4995595;28;20121;-79
2021/08/27 04:23:13;;;;;;;0.17;0.17;;;13.70;83.60;;;;;;4996201;28;20104;-79
2021/08/27 04:25:39;;;;;;;0.30;0.20;;;13.70;83.60;;;;;;5010746;28;20482;-78
2021/08/27 04:28:06;;;;;;;0.10;0.10;;;13.70;83.70;;;;;;4996039;28;20488;-78
2021/08/27 04:30:32;;;;;;;0.10;0.10;;;13.70;83.70;;;;;;4992928;28;20069;-79
2021/08/27 04:32:58;;;;;;;0.38;0.20;;;13.70;83.80;;;;;;4995742;28;20093;-78
2021/08/27 04:35:24;;;;;;;0.13;0.10;;;13.70;83.90;;;;;;4993622;28;20041;-79
2021/08/27 04:37:50;;;;;;;0.35;0.15;;;13.70;83.90;;;;;;4993232;28;20030;-79
2021/08/27 04:40:16;;;;;;;1.10;0.30;;;13.70;83.90;;;;;;4992760;28;20026;-79
2021/08/27 04:42:42;;;;;;;0.30;0.20;;;13.70;84.00;;;;;;4994024;28;20101;-79
2021/08/27 04:45:08;;;;;;;1.20;0.30;;;13.60;83.90;;;;;;4994064;28;20049;-79
2021/08/27 04:47:34;;;;;;;1.35;0.17;;;13.70;84.00;;;;;;4994309;28;20090;-78
2021/08/27 04:50:00;;;;;;;0.40;0.20;;;13.70;84.00;;;;;;4994118;28;20069;-79
2021/08/27 04:52:26;;;;;;;0.45;0.35;;;13.70;84.00;;;;;;5010199;28;20108;-79
2021/08/27 04:54:51;;;;;;;0.30;0.20;;;13.70;83.90;;;;;;4977859;28;20098;-79
2021/08/27 04:57:17;;;;;;;1.67;0.40;;;13.70;83.90;;;;;;4994009;28;20448;-78
2021/08/27 04:59:45;;;;;;;2.08;0.40;;;13.70;83.90;;;;;;4993663;28;20102;-78
2021/08/27 05:02:12;;;;;;;1.63;0.25;;;13.80;83.90;;;;;;4993642;28;20144;-78
2021/08/27 05:04:38;;;;;;;0.38;0.20;;;13.80;83.90;;;;;;5010083;28;20067;-79
2021/08/27 05:07:04;;;;;;;1.35;0.40;;;14.00;84.00;;;;;;4993729;28;20038;-79
2021/08/27 05:09:29;;;;;;;0.20;0.20;;;13.90;83.90;;;;;;4993806;28;20046;-78
2021/08/27 05:11:55;;;;;;;0.30;0.30;;;13.90;83.90;;;;;;4993435;28;20056;-78
2021/08/27 05:14:21;;;;;;;0.22;0.20;;;13.90;83.80;;;;;;4993536;28;20050;-79
2021/08/27 05:16:47;;;;;;;0.55;0.35;;;13.90;83.80;;;;;;4994860;28;20077;-79
2021/08/27 05:19:12;;;;;;;0.95;0.30;;;13.90;83.80;;;;;;4993943;28;20482;-79
2021/08/27 05:21:38;;;;;;;1.15;0.45;;;14.10;83.90;;;;;;4994878;28;20081;-79
2021/08/27 05:24:05;;;;;;;0.38;0.20;;;13.90;83.80;;;;;;4992562;28;20039;-78
2021/08/27 05:26:31;;;;;;;0.30;0.30;;;13.90;83.70;;;;;;4992146;28;20038;-79
2021/08/27 05:28:57;;;;;;;0.45;0.28;;;14.00;83.80;;;;;;4991523;28;20124;-79
2021/08/27 05:31:23;;;;;;;0.73;0.20;;;14.00;83.80;;;;;;4976727;28;20030;-79
2021/08/27 05:33:49;;;;;;;0.80;0.20;;;14.00;83.70;;;;;;4992043;28;20043;-79
2021/08/27 05:36:15;;;;;;;1.33;0.30;;;14.10;83.70;;;;;;5008053;28;20552;-79
2021/08/27 05:38:41;;;;;;;0.20;0.20;;;14.10;83.70;;;;;;4994826;28;20034;-79
2021/08/27 05:41:07;;;;;;;0.80;0.17;;;14.10;83.70;;;;;;4995264;28;20125;-79
2021/08/27 05:43:33;;;;;;;0.55;0.35;;;14.10;83.60;;;;;;4992035;28;20034;-79
2021/08/27 05:46:00;;;;;;;0.35;0.20;;;14.20;83.70;;;;;;4992074;28;20042;-79
2021/08/27 05:48:26;;;;;;;0.45;0.30;;;14.20;83.70;;;;;;4992901;28;20038;-79
2021/08/27 05:50:52;;;;;;;0.22;0.20;;;14.20;83.60;;;;;;4992532;28;20034;-79
2021/08/27 05:53:17;;;;;;;0.57;0.30;;;14.20;83.60;;;;;;5007802;28;20047;-79
2021/08/27 05:55:43;;;;;;;0.20;0.20;;;14.30;83.60;;;;;;4993102;28;20038;-79
2021/08/27 05:58:09;;;;;;;0.85;0.20;;;14.30;83.50;;;;;;4992352;28;20060;-79
2021/08/27 06:00:35;;;;;;;0.20;0.20;;;14.40;83.60;;;;;;4991866;28;20030;-79
2021/08/27 06:03:01;;;;;;;0.28;0.28;;;14.40;83.60;;;;;;4991222;28;20066;-79
2021/08/27 06:05:27;;;;;;;1.05;0.43;;;14.40;83.50;;;;;;4993848;28;20042;-79
2021/08/27 06:07:53;;;;;;;0.68;0.30;;;14.50;83.60;;;;;;4994017;28;20038;-79
2021/08/27 06:10:19;;;;;;;0.60;0.22;;;14.60;83.60;;;;;;4994026;28;20031;-79
2021/08/27 06:12:45;;;;;;;0.70;0.28;;;14.60;83.40;;;;;;4994217;28;20398;-78
2021/08/27 06:15:14;;;;;;;0.98;0.20;;;14.70;83.30;;;;;;5008344;28;20899;-79
2021/08/27 06:17:39;;;;;;;0.30;0.30;;;14.70;83.30;;;;;;5008478;28;20043;-79
2021/08/27 06:20:07;;;;;;;0.22;0.20;;;14.80;83.30;;;;;;4991321;28;20049;-79
2021/08/27 06:22:33;;;;;;;0.20;0.20;;;14.80;83.20;;;;;;4992661;28;20075;-79
2021/08/27 06:24:59;;;;;;;0.73;0.30;;;14.90;83.10;;;;;;4993735;28;20034;-79
2021/08/27 06:27:25;;;;;;;0.13;0.13;;;14.90;83.10;;;;;;4990930;28;20041;-79
2021/08/27 06:29:52;;;;;;;0.30;0.20;;;14.90;83.10;;;;;;4992019;28;20044;-79
2021/08/27 06:32:18;;;;;;;0.43;0.20;;;14.90;83.00;;;;;;4991798;28;20922;-79
2021/08/27 06:34:44;;;;;;;1.00;0.30;;;15.00;83.00;;;;;;4991178;28;20054;-79
2021/08/27 06:37:10;;;;;;;0.20;0.20;;;15.10;83.00;;;;;;4990861;28;20049;-79
2021/08/27 06:39:37;;;;;;;0.30;0.20;;;15.00;83.60;;;;;;4992099;28;20034;-79
2021/08/27 06:42:04;;;;;;;0.75;0.30;;;15.10;83.00;;;;;;4991266;28;20034;-79
2021/08/27 06:44:30;;;;;;;0.60;0.30;;;15.10;83.00;;;;;;5007414;28;20061;-79
2021/08/27 06:46:56;;;;;;;0.50;0.30;;;15.20;83.10;;;;;;4993991;28;20030;-79
2021/08/27 06:49:21;;;;;;;1.20;0.30;;;15.30;83.10;;;;;;4991996;28;20378;-79
2021/08/27 06:51:47;;;;;;;0.45;0.40;;;15.30;82.90;;;;;;4993468;28;20057;-79
2021/08/27 06:54:13;;;;;;;0.57;0.30;;;15.40;82.90;;;;;;4993230;28;20046;-79
2021/08/27 06:56:39;;;;;;;0.20;0.20;;;15.40;82.70;;;;;;4993385;28;20105;-80
2021/08/27 06:59:05;;;;;;;0.20;0.10;;;15.50;82.70;;;;;;4991296;28;20372;-79
2021/08/27 07:01:31;;;;;;;0.45;0.40;;;15.60;82.50;;;;;;4990733;28;20486;-79
2021/08/27 07:03:56;;;;;;;2.20;0.40;;;15.60;82.20;;;;;;4990073;28;20072;-79
2021/08/27 07:06:23;;;;;;;0.20;0.20;;;15.70;82.30;;;;;;4991591;28;20062;-79
2021/08/27 07:08:48;;;;;;;0.60;0.30;;;15.70;82.80;;;;;;5008052;28;20038;-79
2021/08/27 07:11:16;;;;;;;0.32;0.30;;;15.80;82.20;;;;;;4991924;28;20037;-78
2021/08/27 07:13:44;;;;;;;0.40;0.30;;;15.80;82.20;;;;;;4993844;28;20387;-78
2021/08/27 07:16:09;;;;;;;0.20;0.20;;;16.00;82.30;;;;;;4991702;28;20422;-79
2021/08/27 07:18:36;;;;;;;0.30;0.28;;;15.90;82.10;;;;;;4993661;28;20046;-79
2021/08/27 07:21:01;;;;;;;0.20;0.20;;;16.00;82.00;;;;;;4993420;28;20042;-79
2021/08/27 07:23:27;;;;;;;1.27;0.47;;;16.10;81.90;;;;;;4991566;28;20030;-78
2021/08/27 07:25:53;;;;;;;0.40;0.30;;;16.10;81.80;;;;;;4991548;28;20043;-79
2021/08/27 07:28:19;;;;;;;0.80;0.40;;;16.10;81.70;;;;;;5006776;28;20064;-78
2021/08/27 07:30:45;;;;;;;0.10;0.10;;;16.20;81.70;;;;;;4992855;28;20457;-78
2021/08/27 07:33:10;;;;;;;0.45;0.10;;;16.30;81.70;;;;;;4991236;28;20041;-79
2021/08/27 07:35:36;;;;;;;0.60;0.28;;;16.30;81.70;;;;;;4990423;28;20047;-78
2021/08/27 07:38:02;;;;;;;1.88;0.43;;;16.40;81.70;;;;;;4989981;28;20042;-78
2021/08/27 07:40:28;;;;;;;0.80;0.45;;;16.50;81.40;;;;;;4990120;28;20483;-79
2021/08/27 07:42:54;;;;;;;0.60;0.30;;;16.60;81.20;;;;;;5006548;28;20041;-79
2021/08/27 07:45:20;;;;;;;0.32;0.30;;;16.80;81.20;;;;;;5006980;28;20046;-77
2021/08/27 07:47:46;;;;;;;1.65;0.40;;;16.80;81.10;;;;;;4992835;28;20054;-78
2021/08/27 07:50:13;;;;;;;0.55;0.40;;;16.80;81.00;;;;;;4989604;28;20093;-77
2021/08/27 07:52:40;;;;;;;0.43;0.30;;;16.90;81.10;;;;;;4991194;28;20042;-78
2021/08/27 07:55:07;;;;;;;0.82;0.57;;;16.80;80.90;;;;;;4992878;28;20042;-78
2021/08/27 07:57:33;;;;;;;0.35;0.25;;;16.90;80.90;;;;;;4992597;28;20479;-78
2021/08/27 08:00:01;;;;;;;0.50;0.40;;;17.00;80.90;;;;;;4990247;28;20082;-78
2021/08/27 08:02:26;;;;;;;2.05;0.50;;;16.90;80.90;;;;;;4992569;28;20042;-78
2021/08/27 08:04:52;;;;;;;0.65;0.50;;;16.90;81.00;;;;;;4992518;28;20046;-78
2021/08/27 08:07:17;;;;;;;0.40;0.40;;;16.90;81.00;;;;;;4989315;28;20053;-78
2021/08/27 08:09:43;;;;;;;2.33;0.60;;;16.90;81.10;;;;;;4990596;28;20165;-78
2021/08/27 08:12:09;;;;;;;0.75;0.30;;;16.90;81.10;;;;;;4990059;28;20129;-80
2021/08/27 08:14:35;;;;;;;0.45;0.30;;;16.90;81.00;;;;;;4992670;28;20070;-79
2021/08/27 08:17:00;;;;;;;0.30;0.30;;;16.90;81.10;;;;;;4992774;28;20062;-79
2021/08/27 08:19:26;;;;;;;0.40;0.40;;;16.90;81.10;;;;;;4989998;28;20097;-78
2021/08/27 08:21:52;;;;;;;0.57;0.50;;;17.00;81.10;;;;;;4989501;28;20042;-78
2021/08/27 08:24:17;;;;;;;0.55;0.30;;;17.00;81.00;;;;;;4992128;28;20125;-79
2021/08/27 08:26:43;;;;;;;0.82;0.30;;;17.00;81.50;;;;;;4990357;28;20125;-79
2021/08/27 08:29:09;;;;;;;0.57;0.32;;;17.10;80.90;;;;;;4989492;28;20041;-79
2021/08/27 08:31:35;;;;;;;0.60;0.40;;;17.10;81.00;;;;;;4992841;28;20035;-79
2021/08/27 08:34:01;;;;;;;1.20;0.40;;;17.20;81.00;;;;;;4990149;28;20039;-78
2021/08/27 08:36:27;;;;;;;0.60;0.40;;;17.40;80.60;;;;;;4989779;28;20035;-79
2021/08/27 08:38:53;;;;;;;0.70;0.40;;;17.60;80.50;;;;;;4988856;28;20621;-79
2021/08/27 08:41:20;;;;;;;0.85;0.35;;;17.70;80.10;;;;;;5007307;28;20037;-79
2021/08/27 08:43:47;;;;;;;0.47;0.20;;;17.90;79.70;;;;;;4992111;28;20042;-78
2021/08/27 08:46:14;;;;;;;0.35;0.22;;;18.10;79.70;;;;;;4989857;28;20113;-79
2021/08/27 08:48:44;;;;;;;0.90;0.45;;;18.30;79.40;;;;;;4989724;28;20037;-78
2021/08/27 08:51:11;;;;;;;0.90;0.40;;;18.50;79.10;;;;;;4991956;28;20093;-79
2021/08/27 08:53:40;;;;;;;0.70;0.30;;;18.60;78.70;;;;;;4990342;28;20030;-79
2021/08/27 08:56:09;;;;;;;0.60;0.40;;;18.70;78.40;;;;;;4992456;28;20042;-78
2021/08/27 08:58:35;;;;;;;0.63;0.40;;;18.80;78.20;;;;;;4992632;28;20057;-78
2021/08/27 09:01:01;;;;;;;1.90;0.45;;;18.90;78.00;;;;;;4994904;28;20463;-78
2021/08/27 09:03:27;;;;;;;0.55;0.30;;;18.90;78.00;;;;;;4992797;28;20022;-78
2021/08/27 09:05:53;;;;;;;0.98;0.40;;;18.70;78.20;;;;;;4994844;28;20465;-78
2021/08/27 09:08:32;;;;;;;0.70;0.45;;;18.70;78.20;;;;;;4995356;28;20054;-78
2021/08/27 09:10:58;;;;;;;0.68;0.35;;;18.60;78.60;;;;;;4992699;28;20131;-79
2021/08/27 09:13:30;;;;;;;0.35;0.35;;;18.50;79.00;;;;;;4995122;28;20038;-78
2021/08/27 09:16:07;;;;;;;0.80;0.40;;;18.40;79.30;;;;;;4992134;28;20046;-78
2021/08/27 09:18:44;;;;;;;0.47;0.30;;;18.50;79.30;;;;;;5009835;28;20030;-78
2021/08/27 09:21:26;;;;;;;1.27;0.60;;;18.60;79.10;;;;;;4992018;28;20103;-79
2021/08/27 09:24:12;;;;;;;0.60;0.43;;;18.70;78.90;;;;;;4995067;28;20035;-79
2021/08/27 09:26:40;;;;;;;0.98;0.63;;;18.80;78.60;;;;;;5007864;28;20030;-79
2021/08/27 09:29:06;;;;;;;0.52;0.40;;;18.80;78.40;;;;;;4993696;28;20042;-78
2021/08/27 09:31:33;;;;;;;0.65;0.55;;;18.90;78.60;;;;;;4994743;28;20122;-78
2021/08/27 09:33:59;;;;;;;0.45;0.40;;;18.90;78.30;;;;;;4992783;28;20125;-79
2021/08/27 09:36:25;;;;;;;0.50;0.45;;;19.10;78.20;;;;;;4991491;28;20170;-78
2021/08/27 09:39:07;;;;;;;1.30;0.70;;;19.20;77.80;;;;;;4993048;28;20110;-78
2021/08/27 09:41:34;;;;;;;1.23;0.50;;;19.20;77.40;;;;;;4992354;28;20066;-79
2021/08/27 09:44:00;;;;;;;1.75;0.50;;;19.20;77.40;;;;;;4992128;28;20132;-79
2021/08/27 09:46:31;;;;;;;0.63;0.40;;;19.10;77.30;;;;;;4991577;28;20037;-78
2021/08/27 09:48:58;;;;;;;0.35;0.35;;;19.10;77.60;;;;;;4991705;28;20093;-79
2021/08/27 09:51:50;;;;;;;1.27;0.50;;;19.00;77.70;;;;;;4991227;28;20035;-79
2021/08/27 09:54:27;;;;;;;0.43;0.43;;;19.00;78.00;;;;;;4991967;28;20042;-78
2021/08/27 09:56:56;;;;;;;0.38;0.30;;;19.00;78.00;;;;;;4992954;28;20042;-79
2021/08/27 09:59:39;;;;;;;0.38;0.32;;;19.10;77.90;;;;;;4992548;28;20042;-79
2021/08/27 10:02:09;;;;;;;1.42;0.47;;;19.30;77.50;;;;;;4993864;28;20042;-79
2021/08/27 10:04:49;;;;;;;0.28;0.28;;;19.40;77.20;;;;;;4991718;28;20133;-78
2021/08/27 10:07:31;;;;;;;0.20;0.20;;;19.40;77.10;;;;;;4978437;28;20053;-78
2021/08/27 10:09:58;;;;;;;0.30;0.30;;;19.50;76.90;;;;;;4990967;28;20035;-78
2021/08/27 10:12:30;;;;;;;0.98;0.47;;;19.40;76.90;;;;;;4992621;28;21244;-78
2021/08/27 10:14:56;;;;;;;1.02;0.47;;;19.30;77.00;;;;;;5006838;28;20450;-79
2021/08/27 10:17:22;;;;;;;1.50;0.50;;;19.40;77.20;;;;;;4992469;28;20053;-79
2021/08/27 10:19:49;;;;;;;0.50;0.50;;;19.30;77.10;;;;;;4993810;28;20475;-79
2021/08/27 10:22:14;;;;;;;0.82;0.47;;;19.30;77.00;;;;;;4992393;28;20537;-79
2021/08/27 10:24:43;;;;;;;0.80;0.43;;;19.30;76.90;;;;;;4993740;28;20026;-79
2021/08/27 10:27:10;;;;;;;0.73;0.40;;;19.00;77.00;;;;;;4993937;28;20038;-79
2021/08/27 10:29:47;;;;;;;0.95;0.50;;;18.60;78.30;;;;;;5007473;28;20173;-78
2021/08/27 10:32:13;;;;;;;0.40;0.40;;;18.10;79.40;;;;;;4993452;28;20117;-79
2021/08/27 10:34:42;;;;;;;1.08;0.40;;;17.90;80.40;;;;;;4991279;28;20121;-81
2021/08/27 10:37:08;;;;;;;0.40;0.30;;;17.60;80.90;;;;;;4991044;28;20073;-81
2021/08/27 10:39:38;;;;;;;1.65;0.60;;;17.60;81.60;;;;;;4990470;28;20034;-81
2021/08/27 10:42:05;;;;;;;1.05;0.60;;;17.40;81.90;;;;;;4990342;28;20031;-81
2021/08/27 10:44:45;;;;;;;1.10;0.40;;;17.30;82.00;;;;;;4993428;28;20102;-81
2021/08/27 10:47:11;;;;;;;0.40;0.40;;;17.30;82.00;;;;;;4993798;28;20039;-81
2021/08/27 10:49:53;;;;;;;0.98;0.50;;;17.30;82.10;;;;;;4990679;28;20108;-81
2021/08/27 10:52:25;;;;;;;0.40;0.30;;;17.40;82.20;;;;;;5006325;28;20050;-82
2021/08/27 10:55:08;;;;;;;0.73;0.35;;;17.30;82.30;;;;;;4990199;28;20193;-80
2021/08/27 10:57:49;;;;;;;0.38;0.30;;;17.30;82.20;;;;;;5006300;28;20082;-81
2021/08/27 11:00:33;;;;;;;0.30;0.30;;;17.50;82.10;;;;;;4991440;28;20050;-80
2021/08/27 11:02:59;;;;;;;0.32;0.20;;;17.70;81.90;;;;;;4993660;28;20047;-79
2021/08/27 11:05:37;;;;;;;0.40;0.30;;;17.70;81.60;;;;;;4974358;28;20045;-80
2021/08/27 11:08:06;;;;;;;0.52;0.20;;;17.70;81.50;;;;;;4991789;28;20086;-80
2021/08/27 11:10:34;;;;;;;1.23;0.30;;;17.70;81.40;;;;;;4993642;28;20113;-79
2021/08/27 11:13:01;;;;;;;0.63;0.30;;;17.80;81.60;;;;;;4991027;28;20049;-79
2021/08/27 11:15:30;;;;;;;0.77;0.40;;;17.90;81.50;;;;;;4990636;28;20038;-79
2021/08/27 11:18:24;;;;;;;0.90;0.40;;;17.90;81.30;;;;;;4992920;28;20036;-80
2021/08/27 11:20:52;;;;;;;0.75;0.30;;;18.00;81.30;;;;;;4991944;28;20498;-78
2021/08/27 11:23:18;;;;;;;1.15;0.40;;;18.20;80.80;;;;;;4991801;28;20026;-78
2021/08/27 11:25:59;;;;;;;0.52;0.30;;;18.20;80.60;;;;;;5006696;28;20049;-78
2021/08/27 11:28:25;;;;;;;;;;;18.20;80.70;;;;;;4993902;28;20042;-78
2021/08/27 11:31:05;;;;;;;1.33;0.40;;;18.20;80.80;;;;;;4992756;28;19913;-79
2021/08/27 11:33:48;;;;;;;0.60;0.20;;;18.10;80.80;;;;;;4990701;28;20141;-79
2021/08/27 11:36:17;;;;;;;1.42;0.40;;;18.00;81.10;;;;;;4992974;28;20074;-78
2021/08/27 11:38:43;;;;;;;1.20;0.50;;;17.80;81.50;;;;;;4990019;28;20037;-78
2021/08/27 11:41:11;;;;;;;0.38;0.20;;;17.80;81.90;;;;;;4992864;28;20041;-79
2021/08/27 11:43:48;;;;;;;0.38;0.20;;;17.90;81.80;;;;;;4992984;28;20056;-78
2021/08/27 11:46:18;;;;;;;1.15;0.22;;;18.10;81.70;;;;;;4992710;28;20525;-79
2021/08/27 11:48:48;;;;;;;0.30;0.30;;;18.40;81.40;;;;;;4992379;28;20498;-79
2021/08/27 11:51:16;;;;;;;1.35;0.45;;;18.50;81.00;;;;;;4990006;28;20053;-79
2021/08/27 11:53:42;;;;;;;0.70;0.25;;;18.60;80.70;;;;;;4992858;28;20050;-79
2021/08/27 11:56:10;;;;;;;0.30;0.30;;;18.70;80.50;;;;;;4992357;28;20151;-79
2021/08/27 11:58:44;;;;;;;0.68;0.40;;;18.70;80.10;;;;;;4992664;28;20045;-81
2021/08/27 12:01:28;;;;;;;0.98;0.50;;;18.60;80.00;;;;;;4989226;28;20026;-81
2021/08/27 12:03:54;;;;;;;1.27;0.47;;;18.50;80.30;;;;;;4991170;28;20054;-81
2021/08/27 12:06:23;;;;;;;1.52;0.60;;;18.60;80.40;;;;;;5006486;28;20042;-81
2021/08/27 12:08:50;;;;;;;2.53;0.52;;;18.50;80.30;;;;;;4990318;28;20042;-81
2021/08/27 12:11:29;;;;;;;1.25;0.50;;;18.50;81.00;;;;;;4992379;28;20041;-80
2021/08/27 12:13:54;;;;;;;0.45;0.35;;;18.60;80.30;;;;;;4991041;28;20466;-80
2021/08/27 12:16:20;;;;;;;1.63;0.47;;;18.70;80.00;;;;;;4990003;28;20042;-80
2021/08/27 12:18:51;;;;;;;1.42;0.60;;;18.80;79.90;;;;;;4989700;28;20375;-82
2021/08/27 12:21:23;;;;;;;3.47;0.75;;;18.80;79.60;;;;;;4990551;28;20074;-80
2021/08/27 12:24:10;;;;;;;0.65;0.47;;;18.80;79.30;;;;;;4990957;28;20474;-82
2021/08/27 12:26:36;;;;;;;1.35;0.70;;;18.80;79.90;;;;;;4993071;28;20038;-81
2021/08/27 12:29:03;;;;;;;1.33;0.60;;;19.00;79.20;;;;;;4996812;28;20474;-82
2021/08/27 12:31:37;;;;;;;1.10;0.50;;;18.90;78.90;;;;;;4993328;28;20054;-80
2021/08/27 12:34:03;;;;;;;0.85;0.43;;;19.10;78.60;;;;;;4993888;28;20470;-79
2021/08/27 12:36:35;;;;;;;1.77;0.60;;;19.10;78.40;;;;;;4993226;28;20042;-79
2021/08/27 12:39:01;;;;;;;2.30;0.52;;;19.20;78.30;;;;;;4976700;28;20038;-80
2021/08/27 12:41:29;;;;;;;1.10;0.57;;;19.30;78.10;;;;;;4995786;28;20394;-79
2021/08/27 12:44:07;;;;;;;1.02;0.60;;;19.30;77.80;;;;;;4989961;28;20055;-79
2021/08/27 12:46:33;;;;;;;0.88;0.50;;;19.40;77.90;;;;;;4995249;28;20045;-80
2021/08/27 12:49:21;;;;;;;1.83;0.60;;;19.30;77.80;;;;;;4995518;28;20038;-82
2021/08/27 12:51:49;;;;;;;0.77;0.47;;;19.40;77.60;;;;;;4992550;28;20057;-80
2021/08/27 12:54:17;;;;;;;1.70;0.68;;;19.40;77.50;;;;;;4992589;28;20038;-79
2021/08/27 12:56:58;;;;;;;0.95;0.50;;;19.50;78.30;;;;;;4992212;28;20035;-81